Nearby METAR Reports

 

EGTE - Exeter Airport, United Kingdom
Distance from station: S 19km
Updated: 19/08/2018 07:50
Mostly cloudy
Mostly cloudy
 Wind from SSW
Wind: SSW 15 km/h
Temperature: 18°C
Dew Point: 16°C
Humidity: 88%
Barometer: 1019 hPa
Clouds: Mostly cloudy
Visibility: 10 km
Cloud details: Mostly cloudy 549 m
2018/08/19 06:50 EGTE 190650Z 21008KT 9999 BKN018 18/16 Q1019
EGDY - Yeovilton (navy), United Kingdom
Distance from station: ENE 55km
Updated: 19/08/2018 07:50
Overcast
Overcast
 Wind from SSW
Wind: SSW 19 km/h
Temperature: 18°C
Dew Point: 16°C
Humidity: 88%
Barometer: 1018 hPa
Clouds: Overcast
Visibility: 10 km
Cloud details: Overcast 396 m
2018/08/19 06:50 EGDY 190650Z AUTO 21010KT 9999 OVC013/// 18/16 Q1018
 
EGFF - Cardiff-Wales Ar, United Kingdom
Distance from station: N 56km
Updated: 19/08/2018 07:50
Light rain, Overcast
Light rain, Overcast
 Wind from W
Wind: W 31 km/h
Temperature: 18°C
Dew Point: 17°C
Humidity: 94%
Barometer: 1017 hPa
Summary: Light rain
Clouds: Overcast
Visibility: 5 km
Cloud details: Few Clouds 122 m
Mostly cloudy 244 m
Overcast 488 m
2018/08/19 06:50 EGFF 190650Z 27017KT 5000 -RA FEW004 BKN008 OVC016 18/17 Q1017
EGDX - St Athan Raf, United Kingdom
Distance from station: N 58km
Updated: 19/08/2018 07:50
Rain, Mostly cloudy
Rain, Mostly cloudy
 Wind from WSW
Wind: WSW 30 km/h
Temperature: 18°C
Dew Point: 17°C
Humidity: 94%
Barometer: 1017 hPa
Summary: Rain
Clouds: Mostly cloudy
Visibility: 10 km
Cloud details: Mostly cloudy 122 m
2018/08/19 06:50 EGDX 190650Z AUTO 25016KT 9999 RA BKN004/// 18/17 Q1017
 
EGGD - Bristol/Lulsgate, United Kingdom
Distance from station: NE 71km
Updated: 19/08/2018 07:50
Overcast
Overcast
 Wind from SSW
Wind: SSW 19 km/h
Temperature: 16°C
Dew Point: 16°C
Humidity: 100%
Barometer: 1018 hPa
Clouds: Overcast
Visibility: 10 km
Cloud details: Mostly cloudy 213 m
Overcast 335 m
2018/08/19 06:50 EGGD 190650Z AUTO 21010KT 9999 BKN007 OVC011 16/16 Q1018